sensor_id;sensor_type;location;lat;lon;timestamp;pressure;altitude;pressure_sealevel;temperature;humidity
26531;BME280;14201;43.188;24.160;2022-09-03T00:01:28;99610.63;;;20.03;90.08
26531;BME280;14201;43.188;24.160;2022-09-03T00:04:01;99621.19;;;20.06;90.64
26531;BME280;14201;43.188;24.160;2022-09-03T00:06:38;99616.47;;;19.48;93.03
26531;BME280;14201;43.188;24.160;2022-09-03T00:12:04;99618.41;;;19.72;93.22
26531;BME280;14201;43.188;24.160;2022-09-03T00:14:50;99610.53;;;19.83;92.50
26531;BME280;14201;43.188;24.160;2022-09-03T00:17:35;99617.59;;;19.85;91.64
26531;BME280;14201;43.188;24.160;2022-09-03T00:20:06;99620.19;;;19.81;91.46
26531;BME280;14201;43.188;24.160;2022-09-03T00:23:23;99606.88;;;19.65;92.33
26531;BME280;14201;43.188;24.160;2022-09-03T00:25:33;99618.41;;;19.72;92.48
26531;BME280;14201;43.188;24.160;2022-09-03T00:28:03;99625.50;;;19.81;91.99
26531;BME280;14201;43.188;24.160;2022-09-03T00:30:31;99617.53;;;19.72;91.98
26531;BME280;14201;43.188;24.160;2022-09-03T00:33:08;99626.34;;;19.74;92.17
26531;BME280;14201;43.188;24.160;2022-09-03T00:35:44;99621.88;;;19.66;91.72
26531;BME280;14201;43.188;24.160;2022-09-03T00:38:12;99625.41;;;19.70;91.92
26531;BME280;14201;43.188;24.160;2022-09-03T00:40:51;99626.34;;;19.77;91.27
26531;BME280;14201;43.188;24.160;2022-09-03T00:51:43;99628.94;;;19.69;89.48
26531;BME280;14201;43.188;24.160;2022-09-03T00:54:26;99625.47;;;19.75;88.28
26531;BME280;14201;43.188;24.160;2022-09-03T00:59:55;99630.63;;;19.55;88.63
26531;BME280;14201;43.188;24.160;2022-09-03T01:11:23;99635.09;;;19.70;86.96
26531;BME280;14201;43.188;24.160;2022-09-03T01:14:12;99650.06;;;19.67;86.13
26531;BME280;14201;43.188;24.160;2022-09-03T01:30:52;99650.16;;;19.74;85.99
26531;BME280;14201;43.188;24.160;2022-09-03T01:36:08;99656.31;;;19.76;86.38
26531;BME280;14201;43.188;24.160;2022-09-03T01:38:39;99651.03;;;19.79;85.63
26531;BME280;14201;43.188;24.160;2022-09-03T01:47:33;99663.38;;;19.78;86.30
26531;BME280;14201;43.188;24.160;2022-09-03T01:50:25;99654.56;;;19.76;86.45
26531;BME280;14201;43.188;24.160;2022-09-03T01:52:58;99658.06;;;19.72;86.83
26531;BME280;14201;43.188;24.160;2022-09-03T01:55:31;99656.22;;;19.70;86.51
26531;BME280;14201;43.188;24.160;2022-09-03T01:58:16;99660.63;;;19.67;87.25
26531;BME280;14201;43.188;24.160;2022-09-03T02:00:50;99665.03;;;19.67;86.63
26531;BME280;14201;43.188;24.160;2022-09-03T02:03:22;99658.84;;;19.63;86.24
26531;BME280;14201;43.188;24.160;2022-09-03T02:05:49;99662.38;;;19.65;86.50
26531;BME280;14201;43.188;24.160;2022-09-03T02:08:18;99662.41;;;19.68;86.91
26531;BME280;14201;43.188;24.160;2022-09-03T02:10:53;99665.94;;;19.66;87.76
26531;BME280;14201;43.188;24.160;2022-09-03T02:13:31;99655.34;;;19.67;87.28
26531;BME280;14201;43.188;24.160;2022-09-03T02:16:05;99658.88;;;19.71;87.17
26531;BME280;14201;43.188;24.160;2022-09-03T02:18:42;99651.94;;;19.78;86.31
26531;BME280;14201;43.188;24.160;2022-09-03T02:21:08;99655.44;;;19.74;86.03
26531;BME280;14201;43.188;24.160;2022-09-03T02:23:38;99646.53;;;19.62;86.51
26531;BME280;14201;43.188;24.160;2022-09-03T02:26:05;99648.28;;;19.63;87.63
26531;BME280;14201;43.188;24.160;2022-09-03T02:28:33;99647.41;;;19.64;87.02
26531;BME280;14201;43.188;24.160;2022-09-03T02:30:59;99638.50;;;19.52;86.71
26531;BME280;14201;43.188;24.160;2022-09-03T02:33:24;99644.72;;;19.60;87.49
26531;BME280;14201;43.188;24.160;2022-09-03T02:35:51;99644.78;;;19.71;87.40
26531;BME280;14201;43.188;24.160;2022-09-03T02:38:22;99631.66;;;19.74;85.45
26531;BME280;14201;43.188;24.160;2022-09-03T02:40:50;99645.63;;;19.60;85.73
26531;BME280;14201;43.188;24.160;2022-09-03T02:43:24;99648.25;;;19.59;86.80
26531;BME280;14201;43.188;24.160;2022-09-03T02:45:55;99662.38;;;19.62;86.97
26531;BME280;14201;43.188;24.160;2022-09-03T02:48:23;99648.28;;;19.62;88.20
26531;BME280;14201;43.188;24.160;2022-09-03T02:50:49;99655.31;;;19.61;87.14
26531;BME280;14201;43.188;24.160;2022-09-03T02:53:15;99644.69;;;19.51;86.81
26531;BME280;14201;43.188;24.160;2022-09-03T02:55:42;99652.56;;;19.43;87.20
26531;BME280;14201;43.188;24.160;2022-09-03T02:58:07;99642.91;;;19.46;86.02
26531;BME280;14201;43.188;24.160;2022-09-03T03:00:34;99642.81;;;19.36;87.08
26531;BME280;14201;43.188;24.160;2022-09-03T03:03:03;99649.03;;;19.41;87.48
26531;BME280;14201;43.188;24.160;2022-09-03T03:05:50;99657.00;;;19.47;87.33
26531;BME280;14201;43.188;24.160;2022-09-03T03:08:18;99662.28;;;19.47;87.11
26531;BME280;14201;43.188;24.160;2022-09-03T03:10:46;99655.19;;;19.40;87.47
26531;BME280;14201;43.188;24.160;2022-09-03T03:13:14;99656.94;;;19.42;88.37
26531;BME280;14201;43.188;24.160;2022-09-03T03:15:39;99661.38;;;19.43;88.49
26531;BME280;14201;43.188;24.160;2022-09-03T03:18:05;99663.16;;;19.47;87.64
26531;BME280;14201;43.188;24.160;2022-09-03T03:20:32;99674.59;;;19.48;87.89
26531;BME280;14201;43.188;24.160;2022-09-03T03:23:00;99668.38;;;19.40;87.01
26531;BME280;14201;43.188;24.160;2022-09-03T03:25:26;99666.56;;;19.30;87.80
26531;BME280;14201;43.188;24.160;2022-09-03T03:27:55;99651.63;;;19.36;86.58
26531;BME280;14201;43.188;24.160;2022-09-03T03:30:21;99664.84;;;19.33;87.53
26531;BME280;14201;43.188;24.160;2022-09-03T03:32:47;99666.47;;;19.16;88.19
26531;BME280;14201;43.188;24.160;2022-09-03T03:35:13;99666.47;;;19.19;88.20
26531;BME280;14201;43.188;24.160;2022-09-03T03:37:39;99666.44;;;19.14;87.07
26531;BME280;14201;43.188;24.160;2022-09-03T03:40:04;99666.41;;;19.10;87.44
26531;BME280;14201;43.188;24.160;2022-09-03T03:42:34;99668.13;;;19.04;87.49
26531;BME280;14201;43.188;24.160;2022-09-03T03:45:00;99651.34;;;18.99;87.35
26531;BME280;14201;43.188;24.160;2022-09-03T03:47:28;99659.34;;;19.07;87.96
26531;BME280;14201;43.188;24.160;2022-09-03T03:49:56;99660.16;;;19.00;88.19
26531;BME280;14201;43.188;24.160;2022-09-03T03:52:22;99671.63;;;19.03;88.54
26531;BME280;14201;43.188;24.160;2022-09-03T03:54:48;99678.63;;;19.00;88.96
26531;BME280;14201;43.188;24.160;2022-09-03T03:57:15;99665.47;;;19.03;89.19
26531;BME280;14201;43.188;24.160;2022-09-03T03:59:40;99668.16;;;19.11;86.87
26531;BME280;14201;43.188;24.160;2022-09-03T04:02:06;99676.97;;;19.11;86.58
26531;BME280;14201;43.188;24.160;2022-09-03T04:04:31;99663.69;;;18.99;86.61
26531;BME280;14201;43.188;24.160;2022-09-03T04:06:57;99666.34;;;19.00;87.12
26531;BME280;14201;43.188;24.160;2022-09-03T04:09:23;99672.59;;;19.13;86.96
26531;BME280;14201;43.188;24.160;2022-09-03T04:11:49;99671.75;;;19.19;86.91
26531;BME280;14201;43.188;24.160;2022-09-03T04:14:16;99671.78;;;19.25;85.95
26531;BME280;14201;43.188;24.160;2022-09-03T04:16:42;99685.91;;;19.28;86.44
26531;BME280;14201;43.188;24.160;2022-09-03T04:19:11;99662.94;;;19.18;86.30
26531;BME280;14201;43.188;24.160;2022-09-03T04:21:38;99679.78;;;19.30;86.83
26531;BME280;14201;43.188;24.160;2022-09-03T04:24:04;99662.09;;;19.22;87.02
26531;BME280;14201;43.188;24.160;2022-09-03T04:26:31;99672.69;;;19.28;86.46
26531;BME280;14201;43.188;24.160;2022-09-03T04:29:02;99683.31;;;19.35;86.53
26531;BME280;14201;43.188;24.160;2022-09-03T04:31:28;99679.72;;;19.23;87.16
26531;BME280;14201;43.188;24.160;2022-09-03T04:33:54;99679.72;;;19.23;87.98
26531;BME280;14201;43.188;24.160;2022-09-03T04:36:22;99678.88;;;19.29;87.98
26531;BME280;14201;43.188;24.160;2022-09-03T04:38:51;99693.94;;;19.41;87.75
26531;BME280;14201;43.188;24.160;2022-09-03T04:41:24;99686.00;;;19.42;88.56
26531;BME280;14201;43.188;24.160;2022-09-03T04:43:51;99684.28;;;19.43;89.49
26531;BME280;14201;43.188;24.160;2022-09-03T04:46:18;99681.63;;;19.46;88.06
26531;BME280;14201;43.188;24.160;2022-09-03T04:48:47;99678.16;;;19.48;87.40
26531;BME280;14201;43.188;24.160;2022-09-03T04:51:17;99683.44;;;19.53;87.92
26531;BME280;14201;43.188;24.160;2022-09-03T04:53:45;99684.44;;;19.66;89.04
26531;BME280;14201;43.188;24.160;2022-09-03T04:56:17;99690.44;;;19.48;88.81
26531;BME280;14201;43.188;24.160;2022-09-03T04:58:43;99686.03;;;19.41;88.25
26531;BME280;14201;43.188;24.160;2022-09-03T05:01:16;99688.69;;;19.47;88.82
26531;BME280;14201;43.188;24.160;2022-09-03T05:03:43;99696.53;;;19.36;88.84
26531;BME280;14201;43.188;24.160;2022-09-03T05:06:09;99708.91;;;19.39;89.55
26531;BME280;14201;43.188;24.160;2022-09-03T05:08:35;99705.09;;;19.06;88.53
26531;BME280;14201;43.188;24.160;2022-09-03T05:11:05;99720.06;;;19.04;88.89
26531;BME280;14201;43.188;24.160;2022-09-03T05:13:32;99720.03;;;19.02;89.02
26531;BME280;14201;43.188;24.160;2022-09-03T05:16:03;99729.72;;;19.02;87.90
26531;BME280;14201;43.188;24.160;2022-09-03T05:18:30;99714.63;;;18.88;89.70
26531;BME280;14201;43.188;24.160;2022-09-03T05:21:01;99728.53;;;18.75;90.31
26531;BME280;14201;43.188;24.160;2022-09-03T05:23:27;99735.75;;;18.92;90.18
26531;BME280;14201;43.188;24.160;2022-09-03T05:26:00;99738.41;;;18.93;90.61
26531;BME280;14201;43.188;24.160;2022-09-03T05:28:29;99739.28;;;18.91;90.22
26531;BME280;14201;43.188;24.160;2022-09-03T05:31:03;99735.88;;;19.05;91.17
26531;BME280;14201;43.188;24.160;2022-09-03T05:33:32;99740.34;;;19.10;89.49
26531;BME280;14201;43.188;24.160;2022-09-03T05:36:02;99740.34;;;19.11;89.05
26531;BME280;14201;43.188;24.160;2022-09-03T05:38:28;99738.66;;;19.18;88.46
26531;BME280;14201;43.188;24.160;2022-09-03T05:41:00;99740.38;;;19.14;86.84
26531;BME280;14201;43.188;24.160;2022-09-03T05:43:27;99737.75;;;19.17;86.33
26531;BME280;14201;43.188;24.160;2022-09-03T05:45:57;99738.56;;;19.08;87.04
26531;BME280;14201;43.188;24.160;2022-09-03T05:48:23;99745.75;;;19.23;87.71
26531;BME280;14201;43.188;24.160;2022-09-03T05:50:48;99750.19;;;19.29;86.27
26531;BME280;14201;43.188;24.160;2022-09-03T05:53:14;99748.38;;;19.25;86.14
26531;BME280;14201;43.188;24.160;2022-09-03T05:55:41;99729.84;;;19.16;86.40
26531;BME280;14201;43.188;24.160;2022-09-03T05:58:07;99760.81;;;19.34;86.53
26531;BME280;14201;43.188;24.160;2022-09-03T06:00:32;99752.81;;;19.27;87.10
26531;BME280;14201;43.188;24.160;2022-09-03T06:02:58;99763.47;;;19.37;87.50
26531;BME280;14201;43.188;24.160;2022-09-03T06:05:24;99768.84;;;19.49;87.00
26531;BME280;14201;43.188;24.160;2022-09-03T06:07:50;99767.97;;;19.52;87.31
26531;BME280;14201;43.188;24.160;2022-09-03T06:10:16;99766.28;;;19.58;88.11
26531;BME280;14201;43.188;24.160;2022-09-03T06:12:42;99767.16;;;19.57;87.69
26531;BME280;14201;43.188;24.160;2022-09-03T06:15:15;99746.00;;;19.57;88.23
26531;BME280;14201;43.188;24.160;2022-09-03T06:17:41;99769.13;;;19.80;86.21
26531;BME280;14201;43.188;24.160;2022-09-03T06:20:08;99775.31;;;19.86;87.45
26531;BME280;14201;43.188;24.160;2022-09-03T06:22:33;99774.50;;;19.98;86.58
26531;BME280;14201;43.188;24.160;2022-09-03T06:24:59;99767.47;;;19.97;84.76
26531;BME280;14201;43.188;24.160;2022-09-03T06:27:24;99759.50;;;19.91;85.32
26531;BME280;14201;43.188;24.160;2022-09-03T06:29:50;99768.41;;;20.05;84.19
26531;BME280;14201;43.188;24.160;2022-09-03T06:32:16;99771.94;;;20.08;83.54
26531;BME280;14201;43.188;24.160;2022-09-03T06:34:41;99760.50;;;20.18;85.31
26531;BME280;14201;43.188;24.160;2022-09-03T06:37:07;99762.31;;;20.25;83.26
26531;BME280;14201;43.188;24.160;2022-09-03T06:39:33;99755.25;;;20.21;84.09
26531;BME280;14201;43.188;24.160;2022-09-03T06:41:58;99759.69;;;20.25;82.53
26531;BME280;14201;43.188;24.160;2022-09-03T06:44:24;99763.25;;;20.35;80.46
26531;BME280;14201;43.188;24.160;2022-09-03T06:46:50;99772.94;;;20.33;81.30
26531;BME280;14201;43.188;24.160;2022-09-03T06:49:18;99776.47;;;20.29;81.18
26531;BME280;14201;43.188;24.160;2022-09-03T06:51:44;99778.25;;;20.39;81.63
26531;BME280;14201;43.188;24.160;2022-09-03T06:54:11;99775.69;;;20.50;81.35
26531;BME280;14201;43.188;24.160;2022-09-03T06:56:39;99780.97;;;20.50;81.21
26531;BME280;14201;43.188;24.160;2022-09-03T06:59:10;99777.44;;;20.54;81.51
26531;BME280;14201;43.188;24.160;2022-09-03T07:01:36;99773.97;;;20.62;81.51
26531;BME280;14201;43.188;24.160;2022-09-03T07:04:06;99781.09;;;20.71;79.46
26531;BME280;14201;43.188;24.160;2022-09-03T07:06:37;99793.44;;;20.74;79.25
26531;BME280;14201;43.188;24.160;2022-09-03T07:09:08;99790.78;;;20.71;79.06
26531;BME280;14201;43.188;24.160;2022-09-03T07:11:35;99789.91;;;20.73;80.62
26531;BME280;14201;43.188;24.160;2022-09-03T07:14:03;99777.53;;;20.72;78.96
26531;BME280;14201;43.188;24.160;2022-09-03T07:16:33;99798.75;;;20.78;77.53
26531;BME280;14201;43.188;24.160;2022-09-03T07:18:59;99799.63;;;20.76;78.01
26531;BME280;14201;43.188;24.160;2022-09-03T07:21:28;99805.59;;;20.32;79.86
26531;BME280;14201;43.188;24.160;2022-09-03T07:23:55;99807.22;;;20.16;80.98
26531;BME280;14201;43.188;24.160;2022-09-03T07:26:24;99799.47;;;20.48;81.88
26531;BME280;14201;43.188;24.160;2022-09-03T07:28:50;99788.94;;;20.57;80.27
26531;BME280;14201;43.188;24.160;2022-09-03T07:31:29;99808.50;;;20.84;79.67
26531;BME280;14201;43.188;24.160;2022-09-03T07:34:16;99804.03;;;20.81;78.69
26531;BME280;14201;43.188;24.160;2022-09-03T07:36:44;99805.84;;;20.92;78.89
26531;BME280;14201;43.188;24.160;2022-09-03T07:39:15;99811.19;;;21.04;77.90
26531;BME280;14201;43.188;24.160;2022-09-03T07:41:42;99809.41;;;21.06;78.24
26531;BME280;14201;43.188;24.160;2022-09-03T07:44:12;99812.06;;;21.12;77.98
26531;BME280;14201;43.188;24.160;2022-09-03T07:46:39;99815.56;;;20.87;77.70
26531;BME280;14201;43.188;24.160;2022-09-03T07:49:05;99815.47;;;20.65;79.22
26531;BME280;14201;43.188;24.160;2022-09-03T07:51:36;99818.22;;;20.94;77.43
26531;BME280;14201;43.188;24.160;2022-09-03T07:54:05;99818.28;;;21.10;77.87
26531;BME280;14201;43.188;24.160;2022-09-03T07:56:32;99810.31;;;21.16;77.39
26531;BME280;14201;43.188;24.160;2022-09-03T07:58:59;99822.78;;;21.45;76.54
26531;BME280;14201;43.188;24.160;2022-09-03T08:01:26;99813.88;;;21.36;76.02
26531;BME280;14201;43.188;24.160;2022-09-03T08:03:58;99815.56;;;20.97;75.86
26531;BME280;14201;43.188;24.160;2022-09-03T08:06:26;99828.88;;;21.28;78.26
26531;BME280;14201;43.188;24.160;2022-09-03T08:08:57;99814.84;;;21.46;77.29
26531;BME280;14201;43.188;24.160;2022-09-03T08:11:25;99816.59;;;21.64;76.72
26531;BME280;14201;43.188;24.160;2022-09-03T08:13:58;99820.13;;;21.78;76.09
26531;BME280;14201;43.188;24.160;2022-09-03T08:16:30;99814.81;;;21.72;73.75
26531;BME280;14201;43.188;24.160;2022-09-03T08:18:56;99827.16;;;21.29;74.58
26531;BME280;14201;43.188;24.160;2022-09-03T08:21:22;99820.13;;;21.52;73.83
26531;BME280;14201;43.188;24.160;2022-09-03T08:23:51;99820.06;;;21.34;74.22
26531;BME280;14201;43.188;24.160;2022-09-03T08:26:18;99822.59;;;20.84;75.98
26531;BME280;14201;43.188;24.160;2022-09-03T08:28:44;99816.38;;;20.73;78.86
26531;BME280;14201;43.188;24.160;2022-09-03T08:31:16;99823.47;;;20.79;77.64
26531;BME280;14201;43.188;24.160;2022-09-03T08:33:47;99821.63;;;20.64;77.91
26531;BME280;14201;43.188;24.160;2022-09-03T08:36:18;99829.69;;;20.90;77.66
26531;BME280;14201;43.188;24.160;2022-09-03T08:38:45;99825.16;;;20.60;79.00
26531;BME280;14201;43.188;24.160;2022-09-03T08:41:22;99821.69;;;20.76;79.73
26531;BME280;14201;43.188;24.160;2022-09-03T08:46:41;99811.16;;;20.89;79.28
26531;BME280;14201;43.188;24.160;2022-09-03T08:49:10;99817.34;;;21.00;78.34
26531;BME280;14201;43.188;24.160;2022-09-03T08:51:37;99807.53;;;20.74;79.37
26531;BME280;14201;43.188;24.160;2022-09-03T08:54:06;99816.22;;;20.47;80.69
26531;BME280;14201;43.188;24.160;2022-09-03T08:56:38;99820.56;;;20.33;80.58
26531;BME280;14201;43.188;24.160;2022-09-03T08:59:07;99808.16;;;20.25;80.30
26531;BME280;14201;43.188;24.160;2022-09-03T09:04:37;99819.81;;;20.55;81.14
26531;BME280;14201;43.188;24.160;2022-09-03T09:09:59;99824.13;;;20.41;79.08
26531;BME280;14201;43.188;24.160;2022-09-03T09:21:54;99812.13;;;21.34;78.55
26531;BME280;14201;43.188;24.160;2022-09-03T09:24:25;99822.78;;;21.45;79.27
26531;BME280;14201;43.188;24.160;2022-09-03T09:26:59;99817.47;;;21.49;78.16
26531;BME280;14201;43.188;24.160;2022-09-03T09:29:29;99826.31;;;21.63;78.23
26531;BME280;14201;43.188;24.160;2022-09-03T09:31:56;99823.66;;;21.73;77.71
26531;BME280;14201;43.188;24.160;2022-09-03T09:34:22;99807.75;;;21.70;77.01
26531;BME280;14201;43.188;24.160;2022-09-03T09:36:50;99820.13;;;21.74;76.12
26531;BME280;14201;43.188;24.160;2022-09-03T09:39:17;99825.41;;;21.85;76.89
26531;BME280;14201;43.188;24.160;2022-09-03T09:41:58;99825.44;;;21.98;76.02
26531;BME280;14201;43.188;24.160;2022-09-03T09:44:26;99828.97;;;22.00;74.65
26531;BME280;14201;43.188;24.160;2022-09-03T09:47:03;99830.69;;;22.15;74.38
26531;BME280;14201;43.188;24.160;2022-09-03T09:49:42;99830.66;;;22.21;74.35
26531;BME280;14201;43.188;24.160;2022-09-03T09:52:15;99832.47;;;21.99;73.08
26531;BME280;14201;43.188;24.160;2022-09-03T09:54:43;99828.97;;;21.91;74.44
26531;BME280;14201;43.188;24.160;2022-09-03T09:57:21;99828.94;;;22.08;73.79
26531;BME280;14201;43.188;24.160;2022-09-03T09:59:47;99831.59;;;22.07;73.48
26531;BME280;14201;43.188;24.160;2022-09-03T10:02:25;99828.91;;;22.17;74.56
26531;BME280;14201;43.188;24.160;2022-09-03T10:04:54;99836.00;;;22.32;73.68
26531;BME280;14201;43.188;24.160;2022-09-03T10:07:22;99835.09;;;22.39;74.18
26531;BME280;14201;43.188;24.160;2022-09-03T10:10:07;99829.75;;;22.50;73.78
26531;BME280;14201;43.188;24.160;2022-09-03T10:12:46;99831.53;;;22.51;73.14
26531;BME280;14201;43.188;24.160;2022-09-03T10:15:21;99835.88;;;22.66;73.14
26531;BME280;14201;43.188;24.160;2022-09-03T10:23:22;99831.56;;;22.17;72.55
26531;BME280;14201;43.188;24.160;2022-09-03T10:28:26;99850.13;;;22.53;71.90
26531;BME280;14201;43.188;24.160;2022-09-03T10:33:58;99847.41;;;22.68;71.98
26531;BME280;14201;43.188;24.160;2022-09-03T10:36:51;99851.75;;;22.85;69.80
26531;BME280;14201;43.188;24.160;2022-09-03T10:39:49;99857.03;;;22.91;69.96
26531;BME280;14201;43.188;24.160;2022-09-03T10:47:43;99862.34;;;23.03;69.70
26531;BME280;14201;43.188;24.160;2022-09-03T10:56:06;99850.81;;;23.03;69.63
26531;BME280;14201;43.188;24.160;2022-09-03T11:01:56;99849.91;;;23.08;70.59
26531;BME280;14201;43.188;24.160;2022-09-03T11:04:45;99853.41;;;23.10;70.34
26531;BME280;14201;43.188;24.160;2022-09-03T11:07:20;99849.84;;;23.17;69.54
26531;BME280;14201;43.188;24.160;2022-09-03T11:13:15;99859.59;;;23.15;69.97
26531;BME280;14201;43.188;24.160;2022-09-03T11:15:50;99854.28;;;23.15;70.32
26531;BME280;14201;43.188;24.160;2022-09-03T11:18:34;99859.56;;;23.25;70.02
26531;BME280;14201;43.188;24.160;2022-09-03T11:21:04;99859.56;;;23.23;70.22
26531;BME280;14201;43.188;24.160;2022-09-03T11:23:39;99865.84;;;23.13;71.58
26531;BME280;14201;43.188;24.160;2022-09-03T11:26:08;99870.31;;;22.94;72.69
26531;BME280;14201;43.188;24.160;2022-09-03T11:34:14;99870.31;;;22.92;72.75
26531;BME280;14201;43.188;24.160;2022-09-03T11:36:40;99879.22;;;22.79;72.44
26531;BME280;14201;43.188;24.160;2022-09-03T11:39:34;99883.66;;;22.75;74.04
26531;BME280;14201;43.188;24.160;2022-09-03T11:42:04;99889.00;;;22.72;74.72
26531;BME280;14201;43.188;24.160;2022-09-03T11:44:42;99884.53;;;22.79;74.04
26531;BME280;14201;43.188;24.160;2022-09-03T11:47:20;99889.00;;;22.69;73.83
26531;BME280;14201;43.188;24.160;2022-09-03T11:49:51;99887.25;;;22.65;74.00
26531;BME280;14201;43.188;24.160;2022-09-03T11:52:29;99879.28;;;22.67;74.36
26531;BME280;14201;43.188;24.160;2022-09-03T11:55:05;99883.69;;;22.60;74.35
26531;BME280;14201;43.188;24.160;2022-09-03T11:57:31;99883.69;;;22.63;74.28
26531;BME280;14201;43.188;24.160;2022-09-03T12:00:11;99879.28;;;22.65;75.14
26531;BME280;14201;43.188;24.160;2022-09-03T12:02:43;99879.25;;;22.71;75.60
26531;BME280;14201;43.188;24.160;2022-09-03T12:05:25;99882.81;;;22.70;75.30
26531;BME280;14201;43.188;24.160;2022-09-03T12:16:35;99869.47;;;22.79;73.55
26531;BME280;14201;43.188;24.160;2022-09-03T12:19:02;99872.97;;;22.92;73.76
26531;BME280;14201;43.188;24.160;2022-09-03T12:21:29;99876.47;;;23.02;71.36
26531;BME280;14201;43.188;24.160;2022-09-03T12:23:55;99879.19;;;22.88;73.12
26531;BME280;14201;43.188;24.160;2022-09-03T12:26:23;99878.25;;;23.00;72.77
26531;BME280;14201;43.188;24.160;2022-09-03T12:28:58;99870.28;;;23.02;72.41
26531;BME280;14201;43.188;24.160;2022-09-03T12:31:27;99862.31;;;22.97;71.52
26531;BME280;14201;43.188;24.160;2022-09-03T12:36:26;99870.31;;;22.89;72.50
26531;BME280;14201;43.188;24.160;2022-09-03T12:39:13;99879.19;;;22.84;72.47
26531;BME280;14201;43.188;24.160;2022-09-03T12:41:57;99881.00;;;22.78;72.64
26531;BME280;14201;43.188;24.160;2022-09-03T12:47:11;99869.50;;;22.76;72.02
26531;BME280;14201;43.188;24.160;2022-09-03T12:49:39;99869.50;;;22.76;73.27
26531;BME280;14201;43.188;24.160;2022-09-03T12:52:13;99874.84;;;22.70;74.38
26531;BME280;14201;43.188;24.160;2022-09-03T12:58:10;99866.00;;;22.68;72.99
26531;BME280;14201;43.188;24.160;2022-09-03T13:00:39;99863.28;;;22.79;73.76
26531;BME280;14201;43.188;24.160;2022-09-03T13:03:32;99868.56;;;22.84;73.14
26531;BME280;14201;43.188;24.160;2022-09-03T13:06:08;99873.84;;;22.96;72.79
26531;BME280;14201;43.188;24.160;2022-09-03T13:08:59;99862.31;;;22.98;71.93
26531;BME280;14201;43.188;24.160;2022-09-03T13:11:26;99860.56;;;23.05;72.18
26531;BME280;14201;43.188;24.160;2022-09-03T13:14:03;99855.19;;;23.13;70.74
26531;BME280;14201;43.188;24.160;2022-09-03T13:22:12;99849.06;;;22.92;70.76
26531;BME280;14201;43.188;24.160;2022-09-03T13:27:41;99846.41;;;22.94;69.54
26531;BME280;14201;43.188;24.160;2022-09-03T13:30:14;99846.41;;;22.94;71.45
26531;BME280;14201;43.188;24.160;2022-09-03T13:32:50;99849.94;;;23.05;72.00
26531;BME280;14201;43.188;24.160;2022-09-03T13:38:42;99841.03;;;23.08;68.68
26531;BME280;14201;43.188;24.160;2022-09-03T13:44:15;99855.16;;;23.14;68.97
26531;BME280;14201;43.188;24.160;2022-09-03T13:46:47;99853.44;;;23.09;69.36
26531;BME280;14201;43.188;24.160;2022-09-03T13:55:22;99841.97;;;22.94;71.85
26531;BME280;14201;43.188;24.160;2022-09-03T13:57:54;99845.44;;;23.09;70.79
26531;BME280;14201;43.188;24.160;2022-09-03T14:00:28;99850.75;;;23.09;69.46
26531;BME280;14201;43.188;24.160;2022-09-03T14:19:27;99836.81;;;22.59;71.04
26531;BME280;14201;43.188;24.160;2022-09-03T14:22:22;99844.84;;;22.34;71.74
26531;BME280;14201;43.188;24.160;2022-09-03T14:24:57;99851.03;;;22.22;72.34
26531;BME280;14201;43.188;24.160;2022-09-03T14:27:30;99847.50;;;22.25;72.47
26531;BME280;14201;43.188;24.160;2022-09-03T14:30:05;99856.31;;;22.41;71.95
26531;BME280;14201;43.188;24.160;2022-09-03T14:32:53;99848.31;;;22.49;71.88
26531;BME280;14201;43.188;24.160;2022-09-03T14:35:33;99852.75;;;22.53;72.23
26531;BME280;14201;43.188;24.160;2022-09-03T14:38:13;99850.97;;;22.58;70.90
26531;BME280;14201;43.188;24.160;2022-09-03T14:40:45;99850.13;;;22.53;71.01
26531;BME280;14201;43.188;24.160;2022-09-03T14:43:36;99847.44;;;22.56;72.52
26531;BME280;14201;43.188;24.160;2022-09-03T14:46:27;99856.25;;;22.64;72.72
26531;BME280;14201;43.188;24.160;2022-09-03T14:55:12;99852.63;;;22.84;73.03
26531;BME280;14201;43.188;24.160;2022-09-03T14:58:41;99853.50;;;22.92;71.95
26531;BME280;14201;43.188;24.160;2022-09-03T15:01:10;99854.38;;;22.94;71.20
26531;BME280;14201;43.188;24.160;2022-09-03T15:06:31;99858.78;;;23.04;69.54
26531;BME280;14201;43.188;24.160;2022-09-03T15:11:31;99857.91;;;23.04;67.80
26531;BME280;14201;43.188;24.160;2022-09-03T15:14:06;99862.31;;;23.00;67.86
26531;BME280;14201;43.188;24.160;2022-09-03T15:22:17;99862.31;;;23.05;69.08
26531;BME280;14201;43.188;24.160;2022-09-03T15:24:55;99855.25;;;23.05;71.53
26531;BME280;14201;43.188;24.160;2022-09-03T15:30:14;99864.09;;;22.95;71.49
26531;BME280;14201;43.188;24.160;2022-09-03T15:35:37;99865.91;;;22.90;69.83
26531;BME280;14201;43.188;24.160;2022-09-03T15:43:20;99864.13;;;22.92;69.54
26531;BME280;14201;43.188;24.160;2022-09-03T15:48:33;99865.06;;;22.74;69.07
26531;BME280;14201;43.188;24.160;2022-09-03T15:51:17;99860.69;;;22.68;70.29
26531;BME280;14201;43.188;24.160;2022-09-03T15:56:38;99868.66;;;22.57;71.53
26531;BME280;14201;43.188;24.160;2022-09-03T16:02:08;99867.75;;;22.58;72.34
26531;BME280;14201;43.188;24.160;2022-09-03T16:04:55;99866.88;;;22.59;74.10
26531;BME280;14201;43.188;24.160;2022-09-03T16:10:12;99866.88;;;22.56;72.96
26531;BME280;14201;43.188;24.160;2022-09-03T16:15:47;99875.81;;;22.35;74.98
26531;BME280;14201;43.188;24.160;2022-09-03T16:18:26;99876.66;;;22.39;74.41
26531;BME280;14201;43.188;24.160;2022-09-03T16:29:14;99879.34;;;22.33;75.28
26531;BME280;14201;43.188;24.160;2022-09-03T16:37:08;99878.44;;;22.29;77.94
26531;BME280;14201;43.188;24.160;2022-09-03T16:42:39;99877.59;;;22.30;77.05
26531;BME280;14201;43.188;24.160;2022-09-03T16:48:25;99877.56;;;22.21;75.78